createdAt,value
2023-06-03T00:03:33.313Z,1.58
2023-06-03T00:07:35.165Z,1.90
2023-06-03T00:11:39.028Z,1.90
2023-06-03T00:15:40.912Z,1.75
2023-06-03T00:19:43.586Z,2.10
2023-06-03T00:23:47.216Z,2.03
2023-06-03T00:27:50.392Z,2.03
2023-06-03T00:31:52.917Z,1.92
2023-06-03T00:35:54.748Z,1.80
2023-06-03T00:39:56.491Z,2.13
2023-06-03T00:43:58.260Z,2.28
2023-06-03T00:48:00.420Z,2.20
2023-06-03T00:52:07.037Z,2.10
2023-06-03T00:56:08.996Z,1.70
2023-06-03T01:00:11.300Z,2.45
2023-06-03T01:04:19.685Z,2.00
2023-06-03T01:08:32.972Z,2.15
2023-06-03T01:13:06.078Z,2.40
2023-06-03T01:17:11.199Z,2.20
2023-06-03T01:21:15.211Z,2.08
2023-06-03T01:25:22.024Z,2.50
2023-06-03T01:29:24.005Z,2.10
2023-06-03T01:33:28.201Z,2.40
2023-06-03T01:37:31.261Z,1.80
2023-06-03T01:41:34.146Z,2.30
2023-06-03T01:45:36.870Z,2.40
2023-06-03T01:49:39.230Z,3.20
2023-06-03T01:53:41.038Z,2.35
2023-06-03T01:57:43.750Z,3.15
2023-06-03T02:01:46.321Z,2.97
2023-06-03T02:05:48.101Z,3.25
2023-06-03T02:09:50.407Z,3.10
2023-06-03T02:13:52.243Z,3.10
2023-06-03T02:17:56.888Z,3.55
2023-06-03T02:22:00.303Z,3.08
2023-06-03T02:26:03.318Z,3.00
2023-06-03T02:30:06.264Z,2.70
2023-06-03T02:34:08.032Z,3.10
2023-06-03T02:38:10.193Z,3.70
2023-06-03T02:42:12.468Z,3.08
2023-06-03T02:46:14.863Z,3.05
2023-06-03T02:50:17.316Z,2.75
2023-06-03T02:54:19.315Z,3.38
2023-06-03T02:58:21.335Z,3.50
2023-06-03T03:02:23.262Z,3.40
2023-06-03T03:06:25.548Z,2.88
2023-06-03T03:10:27.399Z,3.08
2023-06-03T03:14:30.086Z,3.10
2023-06-03T03:18:32.609Z,2.58
2023-06-03T03:22:40.300Z,2.53
2023-06-03T03:26:43.880Z,3.40
2023-06-03T03:30:46.990Z,3.30
2023-06-03T03:35:14.501Z,2.78
2023-06-03T03:39:18.026Z,2.92
2023-06-03T03:43:25.651Z,2.63
2023-06-03T03:47:28.048Z,3.22
2023-06-03T03:51:30.098Z,3.05
2023-06-03T03:55:34.483Z,2.97
2023-06-03T03:59:37.703Z,2.95
2023-06-03T04:03:42.381Z,3.40
2023-06-03T04:07:47.431Z,2.83
2023-06-03T04:11:49.541Z,3.55
2023-06-03T04:15:55.288Z,3.25
2023-06-03T04:19:58.373Z,3.10
2023-06-03T04:24:06.259Z,3.60
2023-06-03T04:28:09.520Z,2.72
2023-06-03T04:32:11.794Z,3.42
2023-06-03T04:36:14.645Z,3.45
2023-06-03T04:40:16.914Z,2.88
2023-06-03T04:44:22.256Z,4.20
2023-06-03T04:48:24.528Z,3.63
2023-06-03T04:52:28.643Z,3.67
2023-06-03T04:56:30.796Z,2.97
2023-06-03T05:00:35.276Z,2.90
2023-06-03T05:04:44.958Z,2.97
2023-06-03T05:08:49.045Z,4.05
2023-06-03T05:12:50.991Z,3.60
2023-06-03T05:16:53.720Z,3.50
2023-06-03T05:20:55.591Z,3.17
2023-06-03T05:24:57.431Z,3.65
2023-06-03T05:28:59.371Z,3.38
2023-06-03T05:33:01.748Z,3.58
2023-06-03T05:37:04.338Z,2.90
2023-06-03T05:41:08.039Z,3.53
2023-06-03T05:45:11.205Z,3.03
2023-06-03T05:49:13.246Z,2.55
2023-06-03T05:53:15.578Z,2.85
2023-06-03T05:57:17.448Z,3.38
2023-06-03T06:01:19.551Z,1.98
2023-06-03T06:05:21.643Z,3.13
2023-06-03T06:09:23.489Z,3.13
2023-06-03T06:13:25.569Z,2.70
2023-06-03T06:17:27.803Z,3.10
2023-06-03T06:21:29.908Z,2.33
2023-06-03T06:25:31.888Z,3.22
2023-06-03T06:29:34.129Z,2.20
2023-06-03T06:33:37.769Z,2.17
2023-06-03T06:37:41.822Z,2.70
2023-06-03T06:41:43.691Z,2.22
2023-06-03T06:45:51.388Z,2.33
2023-06-03T06:49:57.097Z,2.40
2023-06-03T06:54:00.520Z,2.55
2023-06-03T06:58:02.791Z,2.20
2023-06-03T07:02:05.004Z,2.60
2023-06-03T07:06:06.932Z,2.22
2023-06-03T07:10:11.334Z,2.30
2023-06-03T07:14:14.248Z,2.30
2023-06-03T07:18:16.063Z,2.40
2023-06-03T07:22:19.108Z,2.05
2023-06-03T07:26:21.621Z,2.30
2023-06-03T07:30:23.769Z,1.90
2023-06-03T07:34:26.242Z,1.98
2023-06-03T07:38:37.800Z,2.70
2023-06-03T07:42:46.174Z,2.20
2023-06-03T07:47:00.768Z,2.20
2023-06-03T07:51:02.791Z,2.80
2023-06-03T07:55:08.337Z,2.58
2023-06-03T07:59:12.257Z,2.17
2023-06-03T08:03:20.002Z,2.40
2023-06-03T08:07:22.024Z,2.90
2023-06-03T08:11:24.129Z,2.20
2023-06-03T08:15:28.665Z,2.17
2023-06-03T08:19:30.437Z,2.10
2023-06-03T08:23:33.801Z,2.17
2023-06-03T08:27:37.190Z,2.28
2023-06-03T08:31:39.025Z,1.95
2023-06-03T08:35:40.842Z,2.05
2023-06-03T08:39:42.742Z,2.28
2023-06-03T08:43:54.375Z,2.33
2023-06-03T08:48:07.728Z,2.00
2023-06-03T08:52:11.723Z,2.33
2023-06-03T08:56:16.628Z,2.20
2023-06-03T09:00:25.412Z,2.20
2023-06-03T09:04:29.018Z,2.50
2023-06-03T09:08:32.313Z,2.10
2023-06-03T09:12:35.525Z,2.10
2023-06-03T09:16:38.015Z,2.50
2023-06-03T09:20:39.920Z,1.90
2023-06-03T09:24:41.651Z,2.22
2023-06-03T09:28:43.524Z,2.25
2023-06-03T09:32:45.583Z,2.22
2023-06-03T09:36:49.966Z,2.47
2023-06-03T09:40:51.856Z,2.20
2023-06-03T09:44:56.757Z,2.00
2023-06-03T09:49:12.164Z,2.00
2023-06-03T09:53:19.780Z,2.20
2023-06-03T09:57:21.662Z,2.08
2023-06-03T10:01:31.579Z,3.08
2023-06-03T10:05:34.902Z,2.33
2023-06-03T10:09:37.314Z,2.30
2023-06-03T10:13:39.076Z,2.20
2023-06-03T10:17:47.152Z,1.60
2023-06-03T10:21:49.358Z,1.80
2023-06-03T10:25:53.873Z,1.77
2023-06-03T10:29:55.924Z,1.90
2023-06-03T10:33:57.874Z,1.85
2023-06-03T10:38:02.244Z,2.13
2023-06-03T10:42:08.229Z,1.70
2023-06-03T10:46:12.357Z,1.90
2023-06-03T10:50:34.999Z,1.95
2023-06-03T10:54:52.076Z,1.73
2023-06-03T10:59:05.570Z,2.10
2023-06-03T11:03:07.967Z,1.88
2023-06-03T11:07:31.813Z,1.60
2023-06-03T11:11:39.759Z,1.77
2023-06-03T11:16:03.694Z,1.90
2023-06-03T11:20:08.253Z,2.10
2023-06-03T11:24:10.390Z,2.10
2023-06-03T11:28:30.851Z,2.10
2023-06-03T11:32:34.721Z,1.95
2023-06-03T11:36:51.394Z,2.10
2023-06-03T11:40:53.231Z,2.17
2023-06-03T11:44:55.022Z,1.85
2023-06-03T11:48:56.934Z,2.00
2023-06-03T11:52:59.449Z,1.90
2023-06-03T11:57:04.048Z,2.00
2023-06-03T12:01:18.994Z,1.85
2023-06-03T12:05:21.268Z,2.00
2023-06-03T12:09:25.872Z,1.92
2023-06-03T12:13:39.478Z,2.03
2023-06-03T12:17:41.430Z,1.73
2023-06-03T12:21:43.315Z,2.20
2023-06-03T12:25:45.063Z,1.85
2023-06-03T12:29:49.340Z,1.92
2023-06-03T12:33:51.990Z,1.80
2023-06-03T12:38:04.182Z,1.98
2023-06-03T12:42:06.197Z,2.05
2023-06-03T12:46:19.064Z,1.83
2023-06-03T12:50:24.292Z,1.90
2023-06-03T12:54:26.310Z,2.00
2023-06-03T12:58:28.488Z,1.98
2023-06-03T13:02:30.295Z,2.08
2023-06-03T13:06:32.184Z,2.00
2023-06-03T13:10:33.951Z,1.90
2023-06-03T13:14:35.719Z,2.10
2023-06-03T13:18:37.468Z,1.80
2023-06-03T13:22:40.810Z,2.00
2023-06-03T13:26:42.553Z,2.00
2023-06-03T13:30:44.467Z,1.80
2023-06-03T13:34:46.631Z,1.90
2023-06-03T13:38:50.509Z,2.08
2023-06-03T13:42:52.373Z,1.97
2023-06-03T13:46:55.080Z,2.10
2023-06-03T13:50:58.545Z,1.70
2023-06-03T13:55:00.800Z,2.03
2023-06-03T13:59:04.069Z,1.92
2023-06-03T14:03:06.497Z,1.90
2023-06-03T14:07:08.264Z,1.80
2023-06-03T14:11:10.411Z,2.00
2023-06-03T14:15:12.181Z,1.73
2023-06-03T14:19:14.030Z,1.80
2023-06-03T14:23:15.982Z,1.85
2023-06-03T14:27:18.019Z,1.85
2023-06-03T14:31:33.184Z,1.98
2023-06-03T14:35:36.315Z,1.90
2023-06-03T14:39:38.085Z,1.90
2023-06-03T14:43:39.900Z,1.63
2023-06-03T14:47:41.741Z,1.80
2023-06-03T14:51:43.575Z,1.77
2023-06-03T14:55:48.478Z,2.10
2023-06-03T14:59:50.464Z,1.90
2023-06-03T15:03:52.232Z,1.88
2023-06-03T15:07:54.009Z,1.80
2023-06-03T15:11:56.003Z,2.05
2023-06-03T15:15:57.763Z,1.83
2023-06-03T15:19:59.550Z,1.60
2023-06-03T15:24:01.934Z,1.70
2023-06-03T15:28:04.002Z,1.50
2023-06-03T15:32:06.450Z,1.70
2023-06-03T15:36:08.434Z,1.85
2023-06-03T15:40:10.946Z,1.63
2023-06-03T15:44:13.880Z,1.70
2023-06-03T15:48:16.252Z,1.48
2023-06-03T15:52:18.886Z,1.60
2023-06-03T15:56:20.746Z,1.60
2023-06-03T16:00:22.722Z,1.60
2023-06-03T16:04:26.295Z,1.95
2023-06-03T16:08:29.890Z,2.10
2023-06-03T16:12:31.690Z,2.08
2023-06-03T16:16:33.501Z,1.90
2023-06-03T16:20:35.328Z,2.08
2023-06-03T16:24:38.089Z,1.92
2023-06-03T16:28:39.882Z,1.60
2023-06-03T16:32:41.684Z,1.60
2023-06-03T16:36:43.503Z,1.60
2023-06-03T16:40:45.358Z,1.65
2023-06-03T16:44:47.338Z,1.80
2023-06-03T16:48:49.120Z,1.73
2023-06-03T16:52:50.931Z,1.52
2023-06-03T16:56:52.734Z,1.58
2023-06-03T17:00:55.252Z,1.65
2023-06-03T17:04:57.801Z,1.50
2023-06-03T17:08:59.662Z,1.60
2023-06-03T17:13:02.303Z,1.42
2023-06-03T17:17:04.721Z,1.30
2023-06-03T17:21:07.061Z,1.70
2023-06-03T17:25:09.580Z,1.88
2023-06-03T17:29:11.451Z,2.08
2023-06-03T17:33:13.363Z,2.00
2023-06-03T17:37:15.242Z,1.30
2023-06-03T17:41:17.306Z,1.52
2023-06-03T17:45:19.240Z,1.52
2023-06-03T17:49:21.066Z,1.70
2023-06-03T17:53:22.910Z,1.20
2023-06-03T17:57:25.637Z,1.50
2023-06-03T18:01:27.964Z,1.80
2023-06-03T18:05:29.751Z,1.30
2023-06-03T18:09:32.391Z,1.50
2023-06-03T18:13:34.146Z,1.38
2023-06-03T18:17:36.222Z,1.30
2023-06-03T18:21:41.016Z,1.40
2023-06-03T18:25:45.124Z,1.50
2023-06-03T18:29:47.442Z,1.10
2023-06-03T18:33:49.727Z,1.30
2023-06-03T18:37:52.445Z,1.13
2023-06-03T18:41:54.185Z,1.20
2023-06-03T18:45:56.105Z,1.10
2023-06-03T18:49:57.932Z,1.73
2023-06-03T18:53:59.728Z,1.23
2023-06-03T18:58:01.735Z,1.30
2023-06-03T19:02:03.781Z,1.08
2023-06-03T19:06:05.999Z,1.33
2023-06-03T19:10:08.430Z,1.30
2023-06-03T19:14:11.501Z,1.10
2023-06-03T19:18:13.614Z,1.00
2023-06-03T19:22:15.528Z,1.27
2023-06-03T19:26:17.995Z,1.40
2023-06-03T19:30:19.859Z,1.10
2023-06-03T19:34:21.626Z,1.10
2023-06-03T19:38:23.382Z,1.23
2023-06-03T19:42:25.260Z,1.20
2023-06-03T19:46:29.645Z,1.10
2023-06-03T19:50:33.391Z,1.02
2023-06-03T19:54:35.278Z,1.20
2023-06-03T19:58:37.117Z,1.05
2023-06-03T20:02:39.170Z,1.10
2023-06-03T20:06:41.021Z,0.95
2023-06-03T20:10:43.031Z,1.20
2023-06-03T20:14:44.858Z,1.40
2023-06-03T20:18:46.801Z,1.00
2023-06-03T20:22:48.571Z,0.90
2023-06-03T20:26:51.729Z,1.10
2023-06-03T20:30:53.834Z,0.80
2023-06-03T20:34:55.887Z,1.00
2023-06-03T20:38:57.684Z,1.10
2023-06-03T20:42:59.434Z,1.00
2023-06-03T20:47:01.583Z,1.10
2023-06-03T20:51:03.911Z,0.90
2023-06-03T20:55:07.721Z,1.08
2023-06-03T20:59:09.700Z,1.00
2023-06-03T21:03:12.070Z,1.20
2023-06-03T21:07:13.896Z,1.00
2023-06-03T21:11:16.469Z,1.00
2023-06-03T21:15:18.296Z,1.00
2023-06-03T21:19:20.624Z,0.95
2023-06-03T21:23:22.469Z,1.00
2023-06-03T21:27:24.205Z,1.05
2023-06-03T21:31:26.241Z,1.00
2023-06-03T21:35:28.028Z,1.02
2023-06-03T21:39:29.753Z,0.82
2023-06-03T21:43:31.640Z,1.00
2023-06-03T21:47:33.418Z,0.75
2023-06-03T21:51:35.306Z,0.90
2023-06-03T21:55:37.113Z,0.82
2023-06-03T21:59:42.185Z,0.95
2023-06-03T22:03:44.492Z,0.80
2023-06-03T22:07:46.848Z,1.10
2023-06-03T22:11:48.836Z,1.10
2023-06-03T22:15:50.808Z,1.13
2023-06-03T22:19:53.049Z,1.13
2023-06-03T22:23:54.981Z,1.20
2023-06-03T22:27:56.815Z,1.20
2023-06-03T22:31:58.777Z,0.90
2023-06-03T22:36:00.602Z,1.00
2023-06-03T22:40:02.521Z,1.15
2023-06-03T22:44:04.570Z,1.20
2023-06-03T22:48:06.496Z,1.20
2023-06-03T22:52:08.443Z,1.17
2023-06-03T22:56:10.320Z,1.38
2023-06-03T23:00:12.825Z,1.30
2023-06-03T23:04:14.601Z,1.30
2023-06-03T23:08:16.376Z,1.40
2023-06-03T23:12:18.205Z,1.20
2023-06-03T23:16:20.077Z,1.10
2023-06-03T23:20:25.567Z,1.00
2023-06-03T23:24:27.503Z,1.10
2023-06-03T23:28:29.256Z,0.85
2023-06-03T23:32:31.016Z,1.10
2023-06-03T23:36:32.809Z,1.10
2023-06-03T23:40:34.683Z,1.20
2023-06-03T23:44:36.584Z,1.00
2023-06-03T23:48:39.279Z,1.30
2023-06-03T23:52:42.310Z,0.98
2023-06-03T23:56:44.109Z,1.20
